Time;durP1;ratioP1;P1;durP2;ratioP2;P2;SDS_P1;SDS_P2;PMS_P1;PMS_P2;Temp;Humidity;BMP_temperature;BMP_pressure;BME280_temperature;BME280_humidity;BME280_pressure;Samples;Min_cycle;Max_cycle;Signal;HPM_P1;HPM_P2
2022/12/11 00:00:22;;;;;;;14.43;6.95;;;;;;;3.51;63.63;98754.78;4871366;29;20059;-90
2022/12/11 00:02:48;;;;;;;17.58;8.32;;;;;;;3.08;63.72;98669.13;4887181;29;20051;-91
2022/12/11 00:05:16;;;;;;;25.42;9.50;;;;;;;3.84;64.07;98790.22;4906852;29;20055;-90
2022/12/11 00:07:42;;;;;;;;;;;;;;;3.76;63.57;98778.09;4872202;29;20190;-91
2022/12/11 00:10:09;;;;;;;20.92;10.07;;;;;;;3.30;63.88;98710.84;4850682;29;20019;-92
2022/12/11 00:12:35;;;;;;;15.23;9.05;;;;;;;3.38;63.90;98736.47;4850955;29;20053;-91
2022/12/11 00:15:01;;;;;;;17.02;8.27;;;;;;;3.18;63.75;98699.59;4850651;29;20053;-91
2022/12/11 00:17:30;;;;;;;13.98;8.35;;;;;;;3.15;62.91;98672.34;4852437;29;20537;-91
2022/12/11 00:19:56;;;;;;;14.35;8.25;;;;;;;3.43;63.26;98724.81;4884244;29;20082;-91
2022/12/11 00:22:22;;;;;;;14.07;8.10;;;;;;;3.68;62.57;98776.00;4870957;29;20064;-91
2022/12/11 00:24:48;;;;;;;13.85;9.05;;;;;;;3.46;62.58;98757.50;4851385;29;20044;-91
2022/12/11 00:27:14;;;;;;;16.92;8.75;;;;;;;3.37;63.42;98739.44;4863506;29;20516;-91
2022/12/11 00:29:41;;;;;;;15.93;9.07;;;;;;;3.41;63.04;98744.03;4863825;29;20041;-90
2022/12/11 00:32:07;;;;;;;16.88;9.07;;;;;;;3.29;63.78;98703.03;4847195;29;20050;-90
2022/12/11 00:34:35;;;;;;;12.40;8.07;;;;;;;3.58;63.72;98743.66;4848190;29;20674;-91
2022/12/11 00:37:01;;;;;;;18.17;8.85;;;;;;;3.09;64.60;98668.84;4850548;29;20037;-92
2022/12/11 00:39:27;;;;;;;15.95;9.65;;;;;;;3.37;63.63;98715.94;4850163;29;20112;-91
2022/12/11 00:41:53;;;;;;;20.88;10.77;;;;;;;3.53;64.34;98747.16;4848757;29;20045;-90
2022/12/11 00:44:24;;;;;;;20.13;10.82;;;;;;;3.37;63.31;98710.53;4854915;29;20056;-91
2022/12/11 00:46:50;;;;;;;18.52;10.02;;;;;;;3.39;63.43;98716.47;4867650;29;20044;-90
2022/12/11 00:49:16;;;;;;;24.05;10.77;;;;;;;3.43;63.59;98722.91;4888620;29;20147;-91
2022/12/11 00:51:43;;;;;;;21.42;11.25;;;;;;;3.53;64.01;98724.75;4886401;29;20049;-92
2022/12/11 00:54:09;;;;;;;24.35;11.10;;;;;;;3.26;64.65;98673.88;4876082;29;20032;-90
2022/12/11 00:56:35;;;;;;;23.48;12.15;;;;;;;3.81;64.34;98769.16;4871207;29;20044;-90
2022/12/11 00:59:01;;;;;;;30.45;12.13;;;;;;;3.97;63.99;98791.44;4871752;29;20050;-91
2022/12/11 01:01:28;;;;;;;20.73;11.48;;;;;;;3.44;63.88;98710.22;4873132;29;20091;-90
2022/12/11 01:03:55;;;;;;;34.10;11.32;;;;;;;3.40;63.98;98704.56;4887689;29;20113;-91
2022/12/11 01:06:24;;;;;;;23.30;11.20;;;;;;;3.90;63.38;98789.06;4870623;29;20127;-93
2022/12/11 01:11:37;;;;;;;26.80;10.98;;;;;;;3.38;63.50;98716.72;4886097;29;20045;-90
2022/12/11 01:14:04;;;;;;;32.37;11.60;;;;;;;3.34;64.07;98729.19;4870678;29;20047;-91
2022/12/11 01:16:30;;;;;;;22.77;11.68;;;;;;;3.43;63.42;98741.84;4870796;29;20048;-91
2022/12/11 01:18:57;;;;;;;26.03;11.17;;;;;;;3.11;63.54;98699.06;4882326;29;20089;-90
2022/12/11 01:21:23;;;;;;;29.20;11.77;;;;;;;3.62;64.01;98803.34;4880880;29;20060;-91
2022/12/11 01:23:50;;;;;;;34.53;11.63;;;;;;;3.58;63.86;98788.78;4850266;29;20052;-90
2022/12/11 01:26:17;;;;;;;21.48;11.30;;;;;;;3.19;63.53;98724.69;4878855;29;20056;-90
2022/12/11 01:28:43;;;;;;;24.63;10.80;;;;;;;3.31;63.29;98746.75;4884047;29;20096;-90
2022/12/11 01:31:12;;;;;;;31.17;11.60;;;;;;;3.55;63.65;98773.13;4885023;29;20047;-91
2022/12/11 01:33:38;;;;;;;33.42;12.30;;;;;;;3.58;65.31;98767.97;4886601;29;20041;-90
2022/12/11 01:36:13;;;;;;;34.67;13.25;;;;;;;3.72;65.63;98771.66;4889079;29;20021;-91
2022/12/11 01:38:40;;;;;;;28.30;12.50;;;;;;;3.30;65.53;98700.03;4914038;29;20107;-91
2022/12/11 01:41:08;;;;;;;43.50;12.88;;;;;;;3.68;64.45;98745.47;4869601;29;20056;-91
2022/12/11 01:43:35;;;;;;;46.30;14.25;;;;;;;3.52;64.74;98728.53;4887949;29;20047;-90
2022/12/11 01:46:01;;;;;;;53.25;13.45;;;;;;;3.68;67.50;98750.88;4884822;29;20040;-90
2022/12/11 01:48:31;;;;;;;27.42;12.30;;;;;;;3.59;65.48;98733.63;4884594;29;20025;-90
2022/12/11 01:51:01;;;;;;;32.03;11.27;;;;;;;3.36;64.94;98694.63;4879763;29;20041;-90
2022/12/11 01:53:35;;;;;;;58.20;12.85;;;;;;;3.96;66.72;98793.34;4884120;29;20048;-91
2022/12/11 01:56:02;;;;;;;46.08;12.30;;;;;;;4.03;65.63;98794.94;4883028;29;20051;-90
2022/12/11 01:58:32;;;;;;;37.88;11.57;;;;;;;3.85;65.74;98758.59;4900084;29;20109;-89
2022/12/11 02:01:00;;;;;;;34.97;12.48;;;;;;;4.02;65.54;98777.09;4902180;29;20028;-91
2022/12/11 02:03:27;;;;;;;46.55;12.75;;;;;;;3.63;66.17;98730.06;4886260;29;20064;-90
2022/12/11 02:05:53;;;;;;;61.65;13.02;;;;;;;3.37;65.06;98686.22;4888991;29;20120;-91
2022/12/11 02:08:24;;;;;;;32.38;12.85;;;;;;;3.67;64.68;98733.81;4887067;29;20037;-90
2022/12/11 02:11:25;;;;;;;40.08;12.57;;;;;;;3.67;64.87;98739.22;4899326;29;20036;-91
2022/12/11 02:14:27;;;;;;;52.92;13.80;;;;;;;3.88;64.92;98775.03;4849440;29;20124;-89
2022/12/11 02:17:12;;;;;;;37.88;12.93;;;;;;;3.73;64.56;98748.13;4809148;29;20137;-91
2022/12/11 02:19:41;;;;;;;83.43;13.30;;;;;;;4.18;65.15;98803.75;4856983;29;20128;-91
2022/12/11 02:22:20;;;;;;;71.57;14.70;;;;;;;3.63;65.49;98711.16;4846598;29;20041;-90
2022/12/11 02:25:04;;;;;;;50.35;13.27;;;;;;;4.20;64.67;98812.38;4832545;29;20058;-90
2022/12/11 02:27:43;;;;;;;64.28;14.85;;;;;;;4.21;64.26;98821.31;4847649;29;20052;-91
2022/12/11 02:30:13;;;;;;;75.25;15.60;;;;;;;3.79;63.99;98757.81;4819540;29;20060;-90
2022/12/11 02:33:06;;;;;;;87.88;16.23;;;;;;;4.17;64.08;98823.78;4841396;29;20090;-90
2022/12/11 02:35:37;;;;;;;84.65;16.73;;;;;;;3.61;64.87;98753.91;4877416;29;20622;-90
2022/12/11 02:38:12;;;;;;;88.57;17.70;;;;;;;3.73;64.94;98777.84;4857457;29;20500;-91
2022/12/11 02:40:41;;;;;;;70.45;15.65;;;;;;;4.16;64.48;98834.88;4832003;29;20132;-92
2022/12/11 02:43:12;;;;;;;95.03;16.95;;;;;;;3.75;64.39;98789.19;4832671;29;20098;-90
2022/12/11 02:45:44;;;;;;;64.43;16.30;;;;;;;3.75;63.29;98798.13;4847182;29;20134;-91
2022/12/11 02:48:11;;;;;;;113.30;18.10;;;;;;;3.66;64.56;98769.25;4862531;29;20068;-91
2022/12/11 02:50:43;;;;;;;85.50;18.50;;;;;;;3.57;64.32;98755.50;4861937;29;20049;-90
2022/12/11 02:53:12;;;;;;;94.85;16.80;;;;;;;3.83;65.96;98785.09;4887621;29;20051;-90
2022/12/11 02:55:40;;;;;;;105.35;17.10;;;;;;;3.67;66.25;98757.34;4887451;29;20040;-91
2022/12/11 02:58:25;;;;;;;82.22;17.30;;;;;;;4.17;65.64;98831.06;4873677;29;20116;-91
2022/12/11 03:00:51;;;;;;;90.47;18.40;;;;;;;3.93;66.88;98802.03;4873367;29;20048;-91
2022/12/11 03:03:17;;;;;;;66.55;16.15;;;;;;;4.27;64.58;98846.41;4871693;29;20044;-90
2022/12/11 03:05:45;;;;;;;108.70;17.50;;;;;;;3.76;66.63;98778.09;4861638;29;20076;-90
2022/12/11 03:08:11;;;;;;;152.70;15.13;;;;;;;3.72;68.44;98798.69;4872634;29;20041;-91
2022/12/11 03:10:37;;;;;;;93.13;15.23;;;;;;;4.12;68.36;98850.03;4871480;29;20822;-91
2022/12/11 03:13:04;;;;;;;149.10;15.75;;;;;;;4.06;69.54;98834.94;4886690;29;20502;-92
2022/12/11 03:15:54;;;;;;;105.50;14.13;;;;;;;3.83;69.57;98798.59;4891543;29;20148;-92
2022/12/11 03:18:43;;;;;;;150.50;16.98;;;;;;;3.84;68.87;98778.56;4900492;29;20080;-92
2022/12/11 03:21:32;;;;;;;;;;;;;;;4.42;66.90;98874.16;4916857;29;20088;-92
2022/12/11 03:24:22;;;;;;;104.07;14.80;;;;;;;4.46;66.94;98880.59;4910704;29;19927;-91
2022/12/11 03:27:05;;;;;;;89.55;15.20;;;;;;;4.44;66.57;98874.69;4914870;29;20052;-92
2022/12/11 03:29:40;;;;;;;132.20;15.27;;;;;;;4.26;66.18;98844.81;4885763;29;20493;-92
2022/12/11 03:32:27;;;;;;;63.30;15.93;;;;;;;3.80;63.96;98791.06;4916436;29;20047;-91
2022/12/11 03:35:33;;;;;;;68.25;15.10;;;;;;;4.38;67.82;98894.75;4902579;29;20073;-91
2022/12/11 03:38:15;;;;;;;115.85;13.75;;;;;;;4.43;68.21;98888.50;4901723;29;20081;-91
2022/12/11 03:40:48;;;;;;;;;;;;;;;4.43;67.59;98892.00;4902129;29;20134;-90
2022/12/11 03:43:18;;;;;;;137.50;14.00;;;;;;;4.09;68.14;98845.19;4916294;29;19984;-92
2022/12/11 03:45:48;;;;;;;142.57;14.68;;;;;;;3.98;67.86;98858.00;4915882;29;20057;-91
2022/12/11 03:48:23;;;;;;;205.55;17.15;;;;;;;4.07;69.54;98855.47;4925773;29;20079;-93
2022/12/11 03:50:58;;;;;;;150.35;16.92;;;;;;;3.96;69.77;98835.81;4906144;29;20044;-92
2022/12/11 03:53:26;;;;;;;117.40;14.20;;;;;;;3.79;69.09;98803.75;4888662;29;20051;-93
2022/12/11 03:55:58;;;;;;;112.97;13.00;;;;;;;4.42;69.85;98898.50;4904707;29;20047;-92
2022/12/11 03:58:25;;;;;;;156.70;14.38;;;;;;;4.21;68.65;98873.50;4892991;29;20040;-89
2022/12/11 04:00:51;;;;;;;156.30;13.68;;;;;;;3.82;67.60;98805.09;4888088;29;20044;-92
2022/12/11 04:03:18;;;;;;;102.78;13.98;;;;;;;4.41;66.58;98896.91;4888898;29;20044;-92
2022/12/11 04:05:55;;;;;;;144.00;14.30;;;;;;;4.09;68.75;98858.72;4872149;29;20135;-93
2022/12/11 04:08:22;;;;;;;154.73;13.45;;;;;;;3.73;69.76;98802.19;4872303;29;20063;-91
2022/12/11 04:13:40;;;;;;;172.73;14.70;;;;;;;3.64;70.04;98828.19;4870177;29;20047;-91
2022/12/11 04:16:08;;;;;;;186.00;15.30;;;;;;;3.61;70.50;98823.31;4875225;29;20048;-92
2022/12/11 04:24:16;;;;;;;92.63;13.35;;;;;;;4.02;66.85;98869.84;4905269;29;20051;-91
2022/12/11 04:26:45;;;;;;;118.70;13.18;;;;;;;4.43;68.23;98934.50;4874875;29;20044;-91
2022/12/11 04:29:11;;;;;;;81.43;12.57;;;;;;;3.87;68.93;98849.13;4864499;29;20050;-93
2022/12/11 04:31:38;;;;;;;169.45;14.93;;;;;;;4.31;69.48;98926.75;4876369;29;20040;-91
2022/12/11 04:34:04;;;;;;;180.63;14.60;;;;;;;4.11;69.32;98914.16;4871449;29;20069;-94
2022/12/11 04:36:30;;;;;;;135.57;14.33;;;;;;;3.79;69.87;98874.06;4870157;29;20534;-92
2022/12/11 04:38:56;;;;;;;115.30;12.65;;;;;;;4.25;69.75;98960.31;4900978;29;20051;-92
2022/12/11 04:41:22;;;;;;;118.28;13.63;;;;;;;3.92;69.64;98878.03;4908792;29;20075;-90
2022/12/11 04:44:05;;;;;;;96.93;13.50;;;;;;;4.23;69.48;98943.56;4901547;29;20062;-92
2022/12/11 04:47:00;;;;;;;121.30;14.85;;;;;;;3.99;70.04;98919.91;4888106;29;20020;-91
2022/12/11 04:49:26;;;;;;;133.68;13.23;;;;;;;3.63;69.98;98881.44;4862281;29;20061;-91
2022/12/11 04:51:53;;;;;;;146.95;12.57;;;;;;;3.25;70.58;98832.44;4827576;29;20040;-92
2022/12/11 04:54:21;;;;;;;149.70;14.40;;;;;;;3.39;70.78;98851.56;4885501;29;20041;-95
2022/12/11 04:56:47;;;;;;;76.35;13.05;;;;;;;3.34;70.49;98826.44;4863339;29;20113;-93
2022/12/11 04:59:13;;;;;;;81.28;12.23;;;;;;;3.39;70.05;98851.56;4860556;29;20053;-93
2022/12/11 05:01:40;;;;;;;113.57;15.13;;;;;;;3.89;71.03;98944.28;4869188;29;20041;-92
2022/12/11 05:04:06;;;;;;;84.93;12.67;;;;;;;3.69;71.01;98914.66;4856893;29;20053;-90
2022/12/11 05:06:32;;;;;;;63.78;11.93;;;;;;;3.40;71.06;98861.25;4836403;29;20021;-91
2022/12/11 05:08:59;;;;;;;87.53;14.90;;;;;;;3.74;71.46;98896.53;4861258;29;20060;-92
2022/12/11 05:11:26;;;;;;;104.47;11.63;;;;;;;3.57;70.29;98879.03;4826317;29;20060;-95
2022/12/11 05:13:52;;;;;;;129.93;13.43;;;;;;;3.53;70.56;98882.28;4853100;29;20518;-91
2022/12/11 05:16:18;;;;;;;167.82;12.80;;;;;;;3.26;70.94;98844.84;4841518;29;20056;-96
2022/12/11 05:18:55;;;;;;;111.40;12.02;;;;;;;3.44;70.71;98861.53;4855023;29;20045;-90
2022/12/11 05:21:24;;;;;;;97.05;14.27;;;;;;;3.23;70.68;98861.59;4870426;29;20076;-90
2022/12/11 05:24:02;;;;;;;89.40;13.02;;;;;;;2.99;71.35;98842.50;4854813;29;20044;-90
2022/12/11 05:26:30;;;;;;;88.50;11.65;;;;;;;3.49;71.13;98918.25;4891658;29;20088;-90
2022/12/11 05:28:56;;;;;;;86.35;11.45;;;;;;;3.46;71.29;98924.22;4871746;29;20046;-89
2022/12/11 05:31:25;;;;;;;153.88;13.38;;;;;;;3.12;71.72;98897.84;4860837;29;20041;-93
2022/12/11 05:33:52;;;;;;;82.22;15.90;;;;;;;3.01;72.32;98859.25;4854447;29;20051;-91
2022/12/11 05:36:23;;;;;;;74.25;11.73;;;;;;;3.43;71.07;98938.25;4863752;29;20047;-93
2022/12/11 05:38:50;;;;;;;106.05;11.38;;;;;;;3.43;71.57;98957.19;4866083;29;20143;-91
2022/12/11 05:41:20;;;;;;;140.52;12.68;;;;;;;3.64;71.18;99001.16;4866889;29;20077;-93
2022/12/11 05:43:47;;;;;;;110.65;12.68;;;;;;;3.46;71.42;98975.53;4848295;29;20045;-91
2022/12/11 05:46:37;;;;;;;84.20;12.70;;;;;;;3.17;71.37;98943.72;4901368;29;20068;-93
2022/12/11 05:49:04;;;;;;;68.88;11.70;;;;;;;3.13;71.28;98920.25;4861030;29;20068;-92
2022/12/11 05:51:38;;;;;;;85.38;13.02;;;;;;;3.10;70.36;98901.91;4900136;29;20100;-94
2022/12/11 05:54:04;;;;;;;110.72;13.43;;;;;;;3.38;70.74;98971.53;4874708;29;20037;-92
2022/12/11 05:56:35;;;;;;;74.80;12.02;;;;;;;3.12;70.37;98927.56;4858142;29;20048;-94
2022/12/11 05:59:07;;;;;;;68.53;11.88;;;;;;;3.03;70.43;98921.06;4866432;29;20047;-93
2022/12/11 06:02:02;;;;;;;61.05;11.30;;;;;;;3.36;70.64;98994.47;4883501;29;20024;-93
2022/12/11 06:04:32;;;;;;;57.25;12.40;;;;;;;3.49;70.88;99019.03;4861340;29;20097;-92
2022/12/11 06:07:02;;;;;;;50.35;11.73;;;;;;;3.00;70.68;98935.13;4857576;29;20049;-94
2022/12/11 06:09:29;;;;;;;47.20;12.38;;;;;;;3.03;70.65;98948.88;4873836;29;20044;-95
2022/12/11 06:11:59;;;;;;;116.75;16.73;;;;;;;3.44;70.79;99020.94;4859972;29;20096;-94
2022/12/11 06:14:39;;;;;;;40.00;10.73;;;;;;;3.35;70.30;99018.00;4835505;29;20033;-93
2022/12/11 06:17:06;;;;;;;44.92;12.20;;;;;;;3.16;70.35;99006.13;4865639;29;20052;-91
2022/12/11 06:19:32;;;;;;;25.42;10.30;;;;;;;3.08;70.51;99001.25;4842628;29;20129;-93
2022/12/11 06:21:59;;;;;;;25.45;9.48;;;;;;;3.29;70.38;99046.09;4826786;29;20057;-93
2022/12/11 06:24:25;;;;;;;27.40;9.30;;;;;;;3.14;69.93;99030.69;4866001;29;20041;-93
2022/12/11 06:26:51;;;;;;;28.17;9.73;;;;;;;2.97;69.98;98985.06;4841356;29;20061;-91
2022/12/11 06:29:18;;;;;;;27.50;9.52;;;;;;;3.38;70.11;99049.03;4829122;29;20638;-92
2022/12/11 06:31:44;;;;;;;37.20;11.63;;;;;;;3.12;70.42;99027.47;4826674;29;20062;-91
2022/12/11 06:34:13;;;;;;;45.50;10.65;;;;;;;3.25;70.91;99050.44;4851330;29;20467;-92
2022/12/11 06:36:40;;;;;;;34.35;11.50;;;;;;;3.16;70.93;99055.56;4868434;29;20040;-91
2022/12/11 06:39:07;;;;;;;36.88;11.60;;;;;;;2.98;71.17;99021.81;4850517;29;20182;-92
2022/12/11 06:41:36;;;;;;;58.22;11.98;;;;;;;3.20;71.10;99072.81;4836407;29;20053;-89
2022/12/11 06:44:11;;;;;;;51.22;12.65;;;;;;;3.33;71.43;99090.38;4853959;29;20983;-89
2022/12/11 06:46:40;;;;;;;34.92;11.27;;;;;;;3.34;71.29;99081.19;4869805;29;20049;-90
2022/12/11 06:49:08;;;;;;;66.55;12.90;;;;;;;3.16;71.38;99050.16;4846592;29;20754;-90
2022/12/11 06:51:35;;;;;;;42.45;12.05;;;;;;;3.22;71.36;99072.56;4887813;29;20119;-90
2022/12/11 06:54:01;;;;;;;54.83;12.07;;;;;;;3.19;71.27;99065.00;4854263;29;20065;-91
2022/12/11 06:56:27;;;;;;;63.60;13.10;;;;;;;2.69;71.41;98985.63;4864770;29;20109;-91
2022/12/11 06:58:55;;;;;;;63.83;12.90;;;;;;;3.34;71.30;99080.38;4870421;29;20068;-91
2022/12/11 07:01:24;;;;;;;73.70;13.25;;;;;;;2.87;70.85;99001.28;4852473;29;20132;-92
2022/12/11 07:03:59;;;;;;;55.60;12.45;;;;;;;3.12;71.03;99045.56;4856876;29;20455;-90
2022/12/11 07:06:30;;;;;;;65.65;12.70;;;;;;;2.98;71.00;99019.09;4861741;29;20598;-91
2022/12/11 07:08:57;;;;;;;56.25;13.00;;;;;;;3.27;71.09;99072.56;4875500;29;20131;-90
2022/12/11 07:11:23;;;;;;;50.22;14.02;;;;;;;3.21;71.21;99068.22;4904300;29;20060;-91
2022/12/11 07:13:51;;;;;;;;;;;;;;;3.47;70.89;99104.16;4891480;29;20044;-91
2022/12/11 07:16:17;;;;;;;50.80;14.70;;;;;;;2.89;70.51;99015.31;4874963;29;19985;-91
2022/12/11 07:18:48;;;;;;;60.28;14.60;;;;;;;3.21;70.42;99062.84;4890946;29;20049;-91
2022/12/11 07:21:15;;;;;;;50.95;16.98;;;;;;;3.22;70.07;99075.28;4888919;29;20049;-91
2022/12/11 07:23:41;;;;;;;62.50;18.10;;;;;;;3.26;70.34;99077.16;4869523;29;20136;-92
2022/12/11 07:26:11;;;;;;;55.17;15.52;;;;;;;3.28;70.06;99064.19;4892489;29;20281;-91
2022/12/11 07:28:37;;;;;;;41.70;14.10;;;;;;;2.79;70.76;99018.81;4889324;29;20598;-93
2022/12/11 07:31:08;;;;;;;48.93;14.10;;;;;;;3.01;70.89;99059.06;4874187;29;20040;-91
2022/12/11 07:33:34;;;;;;;56.08;14.18;;;;;;;3.32;70.80;99113.09;4888237;29;20309;-91
2022/12/11 07:36:02;;;;;;;55.47;14.25;;;;;;;2.68;70.49;99009.09;4873495;29;20041;-92
2022/12/11 07:38:29;;;;;;;32.78;12.00;;;;;;;3.22;70.21;99092.28;4871054;29;20045;-92
2022/12/11 07:40:59;;;;;;;32.63;12.48;;;;;;;3.17;69.82;99070.66;4894827;29;20734;-90
2022/12/11 07:43:25;;;;;;;41.55;14.10;;;;;;;3.51;68.99;99105.25;4872170;29;20107;-91
2022/12/11 07:45:51;;;;;;;34.42;13.20;;;;;;;3.44;68.41;99089.28;4872724;29;20041;-90
2022/12/11 07:48:17;;;;;;;33.22;13.18;;;;;;;3.39;68.40;99066.88;4859271;29;20075;-92
2022/12/11 07:50:44;;;;;;;;;;;;;;;3.88;67.86;99118.44;4890263;29;20060;-90
2022/12/11 07:53:12;;;;;;;39.00;13.65;;;;;;;3.74;67.79;99084.91;4873322;29;20317;-91
2022/12/11 07:55:38;;;;;;;;;;;;;;;4.13;67.17;99116.75;4872724;29;20036;-91
2022/12/11 07:58:04;;;;;;;38.53;13.85;;;;;;;3.52;67.73;99036.59;4872624;29;19923;-91
2022/12/11 08:00:30;;;;;;;122.37;23.70;;;;;;;3.75;67.78;99081.16;4906214;29;20510;-91
2022/12/11 08:02:58;;;;;;;117.13;23.55;;;;;;;3.87;66.09;99107.88;4886063;29;20151;-91
2022/12/11 08:05:24;;;;;;;60.20;19.55;;;;;;;3.87;66.56;99097.88;4873544;29;20092;-91
2022/12/11 08:07:50;;;;;;;43.90;18.42;;;;;;;4.13;65.92;99120.25;4856288;29;20048;-91
2022/12/11 08:10:17;;;;;;;62.10;19.02;;;;;;;3.97;65.57;99121.38;4871208;29;20044;-93
2022/12/11 08:12:51;;;;;;;45.47;18.55;;;;;;;4.14;66.28;99116.47;4874352;29;20126;-90
2022/12/11 08:15:17;;;;;;;53.40;16.08;;;;;;;4.02;65.72;99093.53;4890138;29;20111;-92
2022/12/11 08:17:44;;;;;;;39.95;15.43;;;;;;;4.12;66.51;99147.59;4874477;29;20064;-92
2022/12/11 08:20:10;;;;;;;38.85;15.45;;;;;;;4.09;66.57;99157.06;4889126;29;20064;-91
2022/12/11 08:22:37;;;;;;;38.25;16.42;;;;;;;3.73;66.74;99089.53;4876445;29;20051;-89
2022/12/11 08:25:04;;;;;;;39.72;15.85;;;;;;;4.03;66.29;99143.81;4874572;29;20051;-91
2022/12/11 08:27:36;;;;;;;47.55;16.85;;;;;;;4.10;66.65;99155.97;4873331;29;20060;-90
2022/12/11 08:30:04;;;;;;;46.38;15.73;;;;;;;3.98;66.33;99125.72;4872549;29;20083;-92
2022/12/11 08:32:30;;;;;;;42.65;14.88;;;;;;;3.82;66.08;99114.13;4888149;29;20052;-91
2022/12/11 08:34:57;;;;;;;38.72;17.10;;;;;;;4.20;65.99;99155.13;4890352;29;20071;-91
2022/12/11 08:37:23;;;;;;;36.58;15.70;;;;;;;3.95;65.65;99104.63;4873451;29;20056;-93
2022/12/11 08:39:50;;;;;;;43.80;17.48;;;;;;;3.93;65.80;99125.72;4874381;29;20047;-93
2022/12/11 08:42:17;;;;;;;46.25;18.55;;;;;;;3.94;65.98;99140.84;4874441;29;20036;-92
2022/12/11 08:44:43;;;;;;;57.13;18.10;;;;;;;3.71;66.42;99118.75;4887415;29;20048;-92
2022/12/11 08:47:14;;;;;;;41.40;15.93;;;;;;;4.27;66.30;99187.31;4872839;29;20016;-92
2022/12/11 08:49:42;;;;;;;45.55;17.08;;;;;;;4.29;65.71;99175.13;4858956;29;20119;-92
2022/12/11 08:52:09;;;;;;;49.55;16.98;;;;;;;4.25;65.75;99155.13;4876384;29;20044;-92
2022/12/11 08:54:37;;;;;;;60.08;21.83;;;;;;;4.15;65.64;99150.56;4885359;29;20025;-92
2022/12/11 08:57:04;;;;;;;49.00;16.70;;;;;;;4.47;65.24;99193.50;4853210;29;20118;-90
2022/12/11 08:59:30;;;;;;;46.50;18.33;;;;;;;4.41;65.39;99201.91;4856300;29;20045;-92
2022/12/11 09:01:57;;;;;;;;;;;;;;;4.41;65.43;99201.91;4841500;29;20056;-90
2022/12/11 09:04:23;;;;;;;54.80;16.85;;;;;;;4.13;65.32;99182.47;4854662;29;19927;-92
2022/12/11 09:06:56;;;;;;;36.78;15.00;;;;;;;4.18;65.97;99200.59;4836456;29;20117;-92
2022/12/11 09:09:25;;;;;;;49.28;13.40;;;;;;;4.18;65.99;99212.25;4851036;29;20036;-91
2022/12/11 09:11:51;;;;;;;36.78;14.00;;;;;;;3.91;65.98;99166.56;4852201;29;20488;-93
2022/12/11 09:14:17;;;;;;;32.50;14.40;;;;;;;3.82;65.97;99161.97;4852654;29;20073;-91
2022/12/11 09:16:44;;;;;;;35.88;13.90;;;;;;;3.75;66.15;99157.66;4850644;29;20052;-92
2022/12/11 09:19:14;;;;;;;51.88;14.27;;;;;;;3.95;66.56;99197.38;4864779;29;20124;-91
2022/12/11 09:21:41;;;;;;;35.33;14.40;;;;;;;3.74;66.67;99168.72;4865434;29;20041;-92
2022/12/11 09:24:09;;;;;;;40.38;14.52;;;;;;;3.67;66.74;99168.19;4850251;29;20048;-92
2022/12/11 09:26:37;;;;;;;41.33;15.02;;;;;;;3.67;67.19;99185.22;4865281;29;20092;-91
2022/12/11 09:29:07;;;;;;;36.50;15.02;;;;;;;3.84;66.64;99203.06;4880173;29;20044;-89
2022/12/11 09:31:35;;;;;;;42.25;14.50;;;;;;;3.94;66.56;99205.75;4839176;29;20075;-92
2022/12/11 09:34:07;;;;;;;42.88;14.90;;;;;;;3.75;66.60;99176.59;4852579;29;20044;-89
2022/12/11 09:36:34;;;;;;;36.38;14.60;;;;;;;3.81;66.34;99172.00;4852985;29;20048;-90
2022/12/11 09:39:05;;;;;;;53.13;15.38;;;;;;;3.80;66.19;99185.78;4884014;29;20040;-91
2022/12/11 09:41:36;;;;;;;35.47;16.08;;;;;;;3.81;65.59;99184.69;4870637;29;20051;-92
2022/12/11 09:44:18;;;;;;;35.50;15.20;;;;;;;4.21;65.63;99249.56;4871323;29;20539;-90
2022/12/11 09:46:47;;;;;;;50.35;17.13;;;;;;;4.12;65.93;99240.38;4883148;29;20160;-91
2022/12/11 09:49:38;;;;;;;40.78;16.73;;;;;;;3.70;65.27;99173.88;4874020;29;20049;-90
2022/12/11 09:52:24;;;;;;;36.58;17.02;;;;;;;4.10;65.83;99239.81;4862851;29;20071;-91
2022/12/11 09:54:56;;;;;;;34.50;15.48;;;;;;;4.06;65.70;99210.91;4876254;29;20044;-91
2022/12/11 09:57:47;;;;;;;38.13;17.35;;;;;;;4.15;65.71;99239.03;4855028;29;20052;-92
2022/12/11 10:00:42;;;;;;;30.40;16.02;;;;;;;4.10;65.88;99228.19;4855775;29;20117;-92
2022/12/11 10:03:17;;;;;;;35.38;16.23;;;;;;;4.11;65.64;99248.78;4871014;29;20040;-91
2022/12/11 10:05:52;;;;;;;38.35;17.45;;;;;;;4.12;65.15;99215.22;4862182;29;20059;-94
2022/12/11 10:08:42;;;;;;;36.53;17.20;;;;;;;3.96;65.52;99211.72;4861116;29;20104;-93
2022/12/11 10:11:45;;;;;;;29.45;16.10;;;;;;;4.09;65.41;99216.56;4887078;29;20410;-92
2022/12/11 10:14:46;;;;;;;31.85;15.48;;;;;;;4.05;65.78;99230.91;4876236;29;20043;-91
2022/12/11 10:17:38;;;;;;;40.80;15.73;;;;;;;3.97;66.25;99237.66;4900805;29;20091;-90
2022/12/11 10:20:44;;;;;;;31.23;15.18;;;;;;;3.25;66.44;99134.16;4900349;29;20043;-90
2022/12/11 10:23:24;;;;;;;34.05;16.13;;;;;;;3.63;66.22;99189.56;4827538;29;20049;-92
2022/12/11 10:26:12;;;;;;;39.08;15.63;;;;;;;3.63;66.10;99176.03;4885200;29;20112;-91
2022/12/11 10:28:40;;;;;;;29.60;15.70;;;;;;;3.91;66.16;99227.97;4877319;29;20605;-92
2022/12/11 10:31:49;;;;;;;33.05;16.63;;;;;;;3.59;66.83;99206.59;4873043;29;20466;-92
2022/12/11 10:34:40;;;;;;;35.13;17.10;;;;;;;3.71;66.37;99217.97;4855994;29;20150;-91
2022/12/11 10:37:08;;;;;;;30.30;16.05;;;;;;;3.47;66.16;99171.72;4878158;29;20037;-90
2022/12/11 10:39:34;;;;;;;;;;;;;;;4.08;65.64;99252.03;4893177;29;20047;-87
2022/12/11 10:42:25;;;;;;;28.83;15.35;;;;;;;3.76;65.09;99204.44;4891119;29;19970;-91
2022/12/11 10:45:18;;;;;;;26.45;14.35;;;;;;;3.97;65.32;99226.84;4885490;29;20109;-89
2022/12/11 10:47:45;;;;;;;29.52;14.65;;;;;;;3.99;65.43;99219.28;4888800;29;20159;-88
2022/12/11 10:50:44;;;;;;;33.45;15.38;;;;;;;3.61;65.30;99177.38;4876616;29;20169;-90
2022/12/11 10:53:23;;;;;;;31.42;14.85;;;;;;;3.95;65.16;99219.03;4887131;29;20069;-91
2022/12/11 10:56:04;;;;;;;32.70;14.75;;;;;;;4.12;65.32;99251.19;4889836;29;20063;-90
2022/12/11 10:58:34;;;;;;;33.05;14.35;;;;;;;3.78;65.65;99202.28;4869212;29;20048;-89
2022/12/11 11:01:17;;;;;;;29.25;14.43;;;;;;;4.08;65.50;99233.09;4870649;29;20021;-89
2022/12/11 11:04:03;;;;;;;26.88;14.65;;;;;;;3.71;65.50;99177.41;4868370;29;20157;-89
2022/12/11 11:06:30;;;;;;;33.83;16.55;;;;;;;3.79;65.76;99206.59;4866937;29;20045;-89
2022/12/11 11:08:59;;;;;;;33.53;15.98;;;;;;;3.88;65.90;99201.47;4861158;29;20158;-90
2022/12/11 11:11:35;;;;;;;33.03;15.18;;;;;;;3.95;66.30;99219.03;4906103;29;20059;-90
2022/12/11 11:14:17;;;;;;;40.57;16.17;;;;;;;3.93;66.17;99202.25;4874242;29;20051;-89
2022/12/11 11:17:13;;;;;;;34.63;16.00;;;;;;;3.88;66.27;99206.88;4891769;29;20289;-90
2022/12/11 11:19:57;;;;;;;30.23;16.58;;;;;;;3.71;66.17;99169.31;4860532;29;20052;-90
2022/12/11 11:22:23;;;;;;;34.42;18.27;;;;;;;4.09;66.26;99207.66;4849615;29;20041;-89
2022/12/11 11:25:03;;;;;;;37.30;17.83;;;;;;;4.11;65.16;99184.66;4823628;29;20152;-90
2022/12/11 11:27:58;;;;;;;38.20;17.23;;;;;;;4.19;65.04;99199.50;4854650;29;20137;-88
2022/12/11 11:30:28;;;;;;;40.85;17.83;;;;;;;3.73;65.57;99167.13;4864869;29;20102;-89
2022/12/11 11:33:16;;;;;;;37.58;17.45;;;;;;;3.97;66.47;99203.34;4850539;29;20065;-89
2022/12/11 11:36:01;;;;;;;37.38;16.33;;;;;;;3.37;66.39;99128.47;4863160;29;20044;-89
2022/12/11 11:39:00;;;;;;;34.17;16.55;;;;;;;3.73;66.94;99205.78;4832204;29;20082;-89
2022/12/11 11:41:46;;;;;;;34.95;15.57;;;;;;;3.39;66.98;99151.44;4873820;29;20577;-90
2022/12/11 11:44:19;;;;;;;28.48;15.48;;;;;;;3.74;67.54;99212.00;4867037;29;20053;-89
2022/12/11 11:47:01;;;;;;;35.40;16.45;;;;;;;3.39;67.51;99164.97;4838246;29;20064;-89
2022/12/11 11:50:05;;;;;;;42.85;15.27;;;;;;;3.80;67.24;99219.03;4850181;29;20139;-88
2022/12/11 11:52:41;;;;;;;41.53;18.65;;;;;;;3.32;66.31;99134.69;4848020;29;20140;-90
2022/12/11 11:55:48;;;;;;;35.05;16.38;;;;;;;3.99;66.42;99211.97;4829519;29;20033;-87
2022/12/11 11:58:27;;;;;;;28.10;15.60;;;;;;;3.74;66.28;99179.53;4832213;29;20517;-88
2022/12/11 12:00:54;;;;;;;34.65;16.45;;;;;;;3.52;66.26;99169.81;4832799;29;20049;-88